createdAt,value
2023-04-07T00:02:03.136Z,2.85
2023-04-07T00:04:31.662Z,2.87
2023-04-07T00:06:59.946Z,2.86
2023-04-07T00:09:28.042Z,2.72
2023-04-07T00:11:56.877Z,2.70
2023-04-07T00:14:25.079Z,2.81
2023-04-07T00:16:53.220Z,2.82
2023-04-07T00:19:21.829Z,2.83
2023-04-07T00:21:50.267Z,2.80
2023-04-07T00:24:27.497Z,2.78
2023-04-07T00:27:03.654Z,2.78
2023-04-07T00:29:31.794Z,2.81
2023-04-07T00:32:00.111Z,2.79
2023-04-07T00:34:28.970Z,2.78
2023-04-07T00:36:57.108Z,2.75
2023-04-07T00:39:27.582Z,2.84
2023-04-07T00:41:56.609Z,2.89
2023-04-07T00:44:24.693Z,2.92
2023-04-07T00:46:53.920Z,2.86
2023-04-07T00:49:22.589Z,2.94
2023-04-07T00:51:51.345Z,2.93
2023-04-07T00:54:19.604Z,2.99
2023-04-07T00:56:48.330Z,2.95
2023-04-07T00:59:16.631Z,2.94
2023-04-07T01:01:51.063Z,2.87
2023-04-07T01:04:33.058Z,2.91
2023-04-07T01:07:14.237Z,2.93
2023-04-07T01:09:54.212Z,2.71
2023-04-07T01:12:44.883Z,2.82
2023-04-07T01:15:16.386Z,2.94
2023-04-07T01:17:50.350Z,2.98
2023-04-07T01:20:22.981Z,2.97
2023-04-07T01:22:56.728Z,2.91
2023-04-07T01:25:33.100Z,2.90
2023-04-07T01:28:02.313Z,2.86
2023-04-07T01:30:33.408Z,2.79
2023-04-07T01:33:02.468Z,2.85
2023-04-07T01:35:34.785Z,2.94
2023-04-07T01:38:04.844Z,2.88
2023-04-07T01:40:35.656Z,2.91
2023-04-07T01:43:06.141Z,2.87
2023-04-07T01:45:36.907Z,2.93
2023-04-07T01:48:07.703Z,2.95
2023-04-07T01:50:38.912Z,3.00
2023-04-07T01:53:08.331Z,2.91
2023-04-07T01:55:37.693Z,2.93
2023-04-07T01:58:06.806Z,2.76
2023-04-07T02:00:36.147Z,2.94
2023-04-07T02:03:31.484Z,2.81
2023-04-07T02:06:06.958Z,2.88
2023-04-07T02:08:39.287Z,2.84
2023-04-07T02:11:09.051Z,2.93
2023-04-07T02:13:38.709Z,2.85
2023-04-07T02:16:10.815Z,2.79
2023-04-07T02:18:40.763Z,2.78
2023-04-07T02:21:12.001Z,2.78
2023-04-07T02:23:40.440Z,2.88
2023-04-07T02:26:08.849Z,2.83
2023-04-07T02:28:37.503Z,2.82
2023-04-07T02:31:05.610Z,2.85
2023-04-07T02:33:33.995Z,2.75
2023-04-07T02:36:02.490Z,2.83
2023-04-07T02:38:31.658Z,2.81
2023-04-07T02:40:59.959Z,2.83
2023-04-07T02:43:31.349Z,2.85
2023-04-07T02:45:59.443Z,2.77
2023-04-07T02:48:27.672Z,2.82
2023-04-07T02:50:56.670Z,2.84
2023-04-07T02:53:25.261Z,2.87
2023-04-07T02:55:53.580Z,2.80
2023-04-07T02:58:22.433Z,2.66
2023-04-07T03:00:51.110Z,2.76
2023-04-07T03:03:20.478Z,2.74
2023-04-07T03:05:50.649Z,2.64
2023-04-07T03:08:18.888Z,2.71
2023-04-07T03:10:47.737Z,2.62
2023-04-07T03:13:19.713Z,2.57
2023-04-07T03:15:48.118Z,2.69
2023-04-07T03:18:17.866Z,2.68
2023-04-07T03:20:53.056Z,2.69
2023-04-07T03:23:21.597Z,2.72
2023-04-07T03:25:49.806Z,2.78
2023-04-07T03:28:18.250Z,2.69
2023-04-07T03:30:46.773Z,2.62
2023-04-07T03:33:15.552Z,2.66
2023-04-07T03:35:43.867Z,2.72
2023-04-07T03:38:17.653Z,2.70
2023-04-07T03:40:47.151Z,2.72
2023-04-07T03:43:16.279Z,2.72
2023-04-07T03:45:47.012Z,2.72
2023-04-07T03:48:16.521Z,2.78
2023-04-07T03:50:46.608Z,2.76
2023-04-07T03:53:16.813Z,2.75
2023-04-07T03:55:46.162Z,2.72
2023-04-07T03:58:14.951Z,2.80
2023-04-07T04:00:43.560Z,2.86
2023-04-07T04:03:12.635Z,2.75
2023-04-07T04:05:41.877Z,2.64
2023-04-07T04:08:11.866Z,2.70
2023-04-07T04:10:41.270Z,2.78
2023-04-07T04:13:10.520Z,2.80
2023-04-07T04:15:39.270Z,2.85
2023-04-07T04:18:09.875Z,2.91
2023-04-07T04:20:38.034Z,2.91
2023-04-07T04:23:06.550Z,2.99
2023-04-07T04:25:36.052Z,2.99
2023-04-07T04:28:06.324Z,3.06
2023-04-07T04:30:34.760Z,3.03
2023-04-07T04:33:03.383Z,2.97
2023-04-07T04:35:33.070Z,2.97
2023-04-07T04:38:02.261Z,2.92
2023-04-07T04:40:31.106Z,2.94
2023-04-07T04:42:59.940Z,3.03
2023-04-07T04:45:28.563Z,3.03
2023-04-07T04:47:56.766Z,3.01
2023-04-07T04:50:25.042Z,2.96
2023-04-07T04:52:53.641Z,2.92
2023-04-07T04:55:22.693Z,2.89
2023-04-07T04:57:52.828Z,2.88
2023-04-07T05:00:21.671Z,2.92
2023-04-07T05:02:51.250Z,2.98
2023-04-07T05:05:19.621Z,2.94
2023-04-07T05:07:49.254Z,2.93
2023-04-07T05:10:18.547Z,3.04
2023-04-07T05:12:47.468Z,3.03
2023-04-07T05:15:16.005Z,3.07
2023-04-07T05:17:44.650Z,3.14
2023-04-07T05:20:14.033Z,3.15
2023-04-07T05:22:43.597Z,3.22
2023-04-07T05:25:12.982Z,3.23
2023-04-07T05:27:41.435Z,3.14
2023-04-07T05:30:11.028Z,3.31
2023-04-07T05:32:39.389Z,3.30
2023-04-07T05:35:08.315Z,3.33
2023-04-07T05:37:37.229Z,3.32
2023-04-07T05:40:07.192Z,3.46
2023-04-07T05:42:36.263Z,3.57
2023-04-07T05:45:05.512Z,3.51
2023-04-07T05:47:34.410Z,3.49
2023-04-07T05:50:02.660Z,3.43
2023-04-07T05:52:33.571Z,3.55
2023-04-07T05:55:02.666Z,3.39
2023-04-07T05:57:33.132Z,3.37
2023-04-07T06:00:03.059Z,3.48
2023-04-07T06:02:33.766Z,3.64
2023-04-07T06:05:03.662Z,3.64
2023-04-07T06:07:32.379Z,3.66
2023-04-07T06:10:01.212Z,3.71
2023-04-07T06:12:30.797Z,3.90
2023-04-07T06:14:58.986Z,3.68
2023-04-07T06:17:27.236Z,3.68
2023-04-07T06:19:56.615Z,3.72
2023-04-07T06:22:25.643Z,3.62
2023-04-07T06:24:53.901Z,3.64
2023-04-07T06:27:22.480Z,3.82
2023-04-07T06:29:51.962Z,3.98
2023-04-07T06:32:21.454Z,3.88
2023-04-07T06:34:50.000Z,3.80
2023-04-07T06:37:18.491Z,3.72
2023-04-07T06:39:47.135Z,3.86
2023-04-07T06:42:15.598Z,3.71
2023-04-07T06:44:50.129Z,3.83
2023-04-07T06:47:18.548Z,3.93
2023-04-07T06:49:48.022Z,4.01
2023-04-07T06:52:16.314Z,3.94
2023-04-07T06:54:44.910Z,3.83
2023-04-07T06:57:12.971Z,3.85
2023-04-07T06:59:41.431Z,3.74
2023-04-07T07:02:09.946Z,3.42
2023-04-07T07:04:38.887Z,3.64
2023-04-07T07:07:07.236Z,3.36
2023-04-07T07:09:35.880Z,3.59
2023-04-07T07:12:04.437Z,3.62
2023-04-07T07:14:32.923Z,3.54
2023-04-07T07:17:01.429Z,3.52
2023-04-07T07:19:29.645Z,3.42
2023-04-07T07:21:58.293Z,2.84
2023-04-07T07:24:26.872Z,2.64
2023-04-07T07:26:55.326Z,2.94
2023-04-07T07:29:23.728Z,2.83
2023-04-07T07:31:52.910Z,2.81
2023-04-07T07:34:22.616Z,2.97
2023-04-07T07:36:51.071Z,3.10
2023-04-07T07:39:20.187Z,3.16
2023-04-07T07:41:48.357Z,3.28
2023-04-07T07:44:16.943Z,3.34
2023-04-07T07:46:45.764Z,3.43
2023-04-07T07:49:14.824Z,3.49
2023-04-07T07:51:43.694Z,3.22
2023-04-07T07:54:12.330Z,3.02
2023-04-07T07:56:40.501Z,2.94
2023-04-07T07:59:08.983Z,2.99
2023-04-07T08:01:37.488Z,2.87
2023-04-07T08:04:06.466Z,2.76
2023-04-07T08:06:34.960Z,2.80
2023-04-07T08:09:03.596Z,3.15
2023-04-07T08:11:32.311Z,3.25
2023-04-07T08:14:00.958Z,3.36
2023-04-07T08:16:29.312Z,3.39
2023-04-07T08:18:57.727Z,3.33
2023-04-07T08:21:27.504Z,3.38
2023-04-07T08:23:56.462Z,3.47
2023-04-07T08:26:24.876Z,3.63
2023-04-07T08:28:53.343Z,3.64
2023-04-07T08:31:21.761Z,3.48
2023-04-07T08:33:54.309Z,3.52
2023-04-07T08:36:22.852Z,3.58
2023-04-07T08:38:51.703Z,3.59
2023-04-07T08:41:28.039Z,3.64
2023-04-07T08:43:58.336Z,3.55
2023-04-07T08:46:27.491Z,3.76
2023-04-07T08:48:57.331Z,3.66
2023-04-07T08:51:31.844Z,3.70
2023-04-07T08:54:13.194Z,3.81
2023-04-07T08:56:43.295Z,3.73
2023-04-07T08:59:13.672Z,3.88
2023-04-07T09:01:42.529Z,3.90
2023-04-07T09:04:11.015Z,3.88
2023-04-07T09:06:39.278Z,4.08
2023-04-07T09:09:07.821Z,4.13
2023-04-07T09:11:38.991Z,3.98
2023-04-07T09:14:07.988Z,4.12
2023-04-07T09:16:36.474Z,4.14
2023-04-07T09:19:04.945Z,4.14
2023-04-07T09:21:49.024Z,4.13
2023-04-07T09:24:28.909Z,4.24
2023-04-07T09:27:16.097Z,4.38
2023-04-07T09:29:47.792Z,4.59
2023-04-07T09:32:37.250Z,4.61
2023-04-07T09:35:05.723Z,4.50
2023-04-07T09:37:34.202Z,4.76
2023-04-07T09:40:03.220Z,4.79
2023-04-07T09:42:34.593Z,4.96
2023-04-07T09:45:03.615Z,4.96
2023-04-07T09:47:32.960Z,4.82
2023-04-07T09:50:07.046Z,4.64
2023-04-07T09:52:56.029Z,4.79
2023-04-07T09:55:24.522Z,4.88
2023-04-07T09:57:55.487Z,4.52
2023-04-07T10:00:25.141Z,4.83
2023-04-07T10:02:54.521Z,4.85
2023-04-07T10:05:22.904Z,4.72
2023-04-07T10:07:51.564Z,4.80
2023-04-07T10:10:21.340Z,4.70
2023-04-07T10:12:50.453Z,4.66
2023-04-07T10:15:18.638Z,4.65
2023-04-07T10:17:48.454Z,4.75
2023-04-07T10:20:23.106Z,4.93
2023-04-07T10:22:53.924Z,5.03
2023-04-07T10:25:26.335Z,4.85
2023-04-07T10:27:59.679Z,4.84
2023-04-07T10:30:32.667Z,4.86
2023-04-07T10:33:02.410Z,4.77
2023-04-07T10:36:08.788Z,4.85
2023-04-07T10:38:37.152Z,4.89
2023-04-07T10:41:40.595Z,4.92
2023-04-07T10:44:29.917Z,5.04
2023-04-07T10:47:01.426Z,5.07
2023-04-07T10:49:30.404Z,5.07
2023-04-07T10:52:15.110Z,4.90
2023-04-07T10:54:43.458Z,4.94
2023-04-07T10:57:16.161Z,4.86
2023-04-07T11:00:07.147Z,4.91
2023-04-07T11:02:40.727Z,4.91
2023-04-07T11:05:20.415Z,5.00
2023-04-07T11:07:52.246Z,5.11
2023-04-07T11:10:22.097Z,5.23
2023-04-07T11:13:04.574Z,5.37
2023-04-07T11:15:38.547Z,5.33
2023-04-07T11:18:14.251Z,5.27
2023-04-07T11:20:46.004Z,5.34
2023-04-07T11:23:16.585Z,5.26
2023-04-07T11:25:47.871Z,5.38
2023-04-07T11:28:16.720Z,5.51
2023-04-07T11:30:54.137Z,5.49
2023-04-07T11:33:24.477Z,5.49
2023-04-07T11:36:00.557Z,5.41
2023-04-07T11:38:35.387Z,5.35
2023-04-07T11:41:14.772Z,4.98
2023-04-07T11:43:43.076Z,5.26
2023-04-07T11:46:16.946Z,5.33
2023-04-07T11:48:47.315Z,5.30
2023-04-07T11:51:21.165Z,5.51
2023-04-07T11:53:55.625Z,5.38
2023-04-07T11:56:24.069Z,5.35
2023-04-07T11:58:54.143Z,5.15
2023-04-07T12:01:24.801Z,5.19
2023-04-07T12:04:02.873Z,5.27
2023-04-07T12:06:35.158Z,5.30
2023-04-07T12:09:07.700Z,5.41
2023-04-07T12:11:37.396Z,5.50
2023-04-07T12:14:06.772Z,5.35
2023-04-07T12:16:39.362Z,5.36
2023-04-07T12:19:07.920Z,5.46
2023-04-07T12:21:36.050Z,5.49
2023-04-07T12:24:04.491Z,5.56
2023-04-07T12:26:33.096Z,5.57
2023-04-07T12:29:05.452Z,5.72
2023-04-07T12:31:34.926Z,5.68
2023-04-07T12:34:03.420Z,5.49
2023-04-07T12:36:31.588Z,5.51
2023-04-07T12:39:00.231Z,5.51
2023-04-07T12:41:28.329Z,5.53
2023-04-07T12:43:56.575Z,5.60
2023-04-07T12:46:25.239Z,5.51
2023-04-07T12:48:53.511Z,5.57
2023-04-07T12:51:22.128Z,5.58
2023-04-07T12:53:51.101Z,5.67
2023-04-07T12:56:19.255Z,5.52
2023-04-07T12:58:47.444Z,5.41
2023-04-07T13:01:16.842Z,5.49
2023-04-07T13:03:45.404Z,5.42
2023-04-07T13:06:14.063Z,5.44
2023-04-07T13:08:42.661Z,5.53
2023-04-07T13:11:10.880Z,5.63
2023-04-07T13:13:39.487Z,5.65
2023-04-07T13:16:08.325Z,5.67
2023-04-07T13:18:36.841Z,5.69
2023-04-07T13:21:40.569Z,5.65
2023-04-07T13:23:54.742Z,5.53
2023-04-07T13:26:23.098Z,5.48
2023-04-07T13:28:51.172Z,5.44
2023-04-07T13:31:22.037Z,5.47
2023-04-07T13:33:50.865Z,5.54
2023-04-07T13:36:22.563Z,5.57
2023-04-07T13:38:51.699Z,5.57
2023-04-07T13:41:20.085Z,5.58
2023-04-07T13:43:49.071Z,5.53
2023-04-07T13:46:28.131Z,5.52
2023-04-07T13:48:57.297Z,5.42
2023-04-07T13:51:25.956Z,5.46
2023-04-07T13:53:54.012Z,5.52
2023-04-07T13:56:22.743Z,5.51
2023-04-07T13:58:51.855Z,5.39
2023-04-07T14:01:20.140Z,5.44
2023-04-07T14:03:49.891Z,5.44
2023-04-07T14:06:18.407Z,5.50
2023-04-07T14:08:46.517Z,5.53
2023-04-07T14:11:19.406Z,5.51
2023-04-07T14:13:48.214Z,5.57
2023-04-07T14:16:17.663Z,5.46
2023-04-07T14:18:47.232Z,5.51
2023-04-07T14:21:15.743Z,5.54
2023-04-07T14:23:44.206Z,5.61
2023-04-07T14:26:13.384Z,5.59
2023-04-07T14:28:41.697Z,5.67
2023-04-07T14:31:14.648Z,5.64
2023-04-07T14:33:44.255Z,5.63
2023-04-07T14:36:17.054Z,5.62
2023-04-07T14:38:45.205Z,5.64
2023-04-07T14:41:13.683Z,5.64
2023-04-07T14:43:42.535Z,5.61
2023-04-07T14:46:12.267Z,5.49
2023-04-07T14:48:41.185Z,5.49
2023-04-07T14:51:15.396Z,5.53
2023-04-07T14:53:45.677Z,5.60
2023-04-07T14:56:14.054Z,5.65
2023-04-07T14:58:42.267Z,5.64
2023-04-07T15:01:10.689Z,5.56
2023-04-07T15:03:39.346Z,5.53
2023-04-07T15:06:09.029Z,5.62
2023-04-07T15:08:38.227Z,5.60
2023-04-07T15:11:07.613Z,5.52
2023-04-07T15:13:36.818Z,5.43
2023-04-07T15:16:13.492Z,5.42
2023-04-07T15:18:44.705Z,5.56
2023-04-07T15:21:14.850Z,5.65
2023-04-07T15:23:43.095Z,5.68
2023-04-07T15:26:11.322Z,5.59
2023-04-07T15:28:40.038Z,5.59
2023-04-07T15:31:11.035Z,5.63
2023-04-07T15:33:41.060Z,5.58
2023-04-07T15:36:09.299Z,5.55
2023-04-07T15:38:40.437Z,5.56
2023-04-07T15:41:09.407Z,5.60
2023-04-07T15:43:38.029Z,5.63
2023-04-07T15:46:06.151Z,5.59
2023-04-07T15:48:34.678Z,5.60
2023-04-07T15:51:03.183Z,5.61
2023-04-07T15:53:31.291Z,5.55
2023-04-07T15:56:00.040Z,5.61
2023-04-07T15:58:28.190Z,5.49
2023-04-07T16:00:56.446Z,5.52
2023-04-07T16:03:25.303Z,5.45
2023-04-07T16:05:53.884Z,5.51
2023-04-07T16:08:22.009Z,5.53
2023-04-07T16:10:51.075Z,5.56
2023-04-07T16:13:19.250Z,5.58
2023-04-07T16:15:47.477Z,5.57
2023-04-07T16:18:16.335Z,5.54
2023-04-07T16:20:44.510Z,5.53
2023-04-07T16:23:13.448Z,5.52
2023-04-07T16:25:41.925Z,5.52
2023-04-07T16:28:10.475Z,5.52
2023-04-07T16:30:40.393Z,5.50
2023-04-07T16:33:09.660Z,5.51
2023-04-07T16:35:37.817Z,5.50
2023-04-07T16:38:06.331Z,5.49
2023-04-07T16:40:35.438Z,5.50
2023-04-07T16:43:03.530Z,5.48
2023-04-07T16:45:31.686Z,5.46
2023-04-07T16:48:00.606Z,5.47
2023-04-07T16:50:28.799Z,5.42
2023-04-07T16:52:57.689Z,5.34
2023-04-07T16:55:26.413Z,5.29
2023-04-07T16:57:54.574Z,5.29
2023-04-07T17:00:22.835Z,5.26
2023-04-07T17:02:51.508Z,5.16
2023-04-07T17:05:19.835Z,5.18
2023-04-07T17:07:48.454Z,5.15
2023-04-07T17:10:17.116Z,5.07
2023-04-07T17:12:48.459Z,5.07
2023-04-07T17:15:16.953Z,5.05
2023-04-07T17:17:45.679Z,5.02
2023-04-07T17:20:17.599Z,5.03
2023-04-07T17:22:46.687Z,4.97
2023-04-07T17:25:15.332Z,4.99
2023-04-07T17:27:44.442Z,4.99
2023-04-07T17:30:13.424Z,4.97
2023-04-07T17:32:42.501Z,4.96
2023-04-07T17:35:10.786Z,4.95
2023-04-07T17:37:39.399Z,4.91
2023-04-07T17:40:08.164Z,4.89
2023-04-07T17:42:37.292Z,4.85
2023-04-07T17:45:08.395Z,4.82
2023-04-07T17:47:37.608Z,4.82
2023-04-07T17:50:10.715Z,4.81
2023-04-07T17:52:39.149Z,4.79
2023-04-07T17:55:08.486Z,4.76
2023-04-07T17:57:37.127Z,4.72
2023-04-07T18:00:06.734Z,4.73
2023-04-07T18:02:41.081Z,4.72
2023-04-07T18:05:10.476Z,4.71
2023-04-07T18:07:38.963Z,4.73
2023-04-07T18:10:09.848Z,4.73
2023-04-07T18:12:39.043Z,4.68
2023-04-07T18:15:07.852Z,4.69
2023-04-07T18:17:36.972Z,4.68
2023-04-07T18:20:06.962Z,4.64
2023-04-07T18:22:35.557Z,4.66
2023-04-07T18:25:04.176Z,4.62
2023-04-07T18:27:32.661Z,4.62
2023-04-07T18:30:00.912Z,4.63
2023-04-07T18:32:31.205Z,4.62
2023-04-07T18:34:59.632Z,4.62
2023-04-07T18:37:29.538Z,4.58
2023-04-07T18:39:58.060Z,4.53
2023-04-07T18:42:26.693Z,4.54
2023-04-07T18:44:54.752Z,4.55
2023-04-07T18:47:22.983Z,4.56
2023-04-07T18:49:53.178Z,4.58
2023-04-07T18:52:21.649Z,4.54
2023-04-07T18:54:49.742Z,4.54
2023-04-07T18:57:18.352Z,4.54
2023-04-07T18:59:46.840Z,4.57
2023-04-07T19:02:15.081Z,4.56
2023-04-07T19:04:44.488Z,4.56
2023-04-07T19:07:12.724Z,4.53
2023-04-07T19:09:46.794Z,4.48
2023-04-07T19:12:16.042Z,4.51
2023-04-07T19:14:44.412Z,4.50
2023-04-07T19:17:12.801Z,4.52
2023-04-07T19:19:41.342Z,4.50
2023-04-07T19:22:09.611Z,4.48
2023-04-07T19:24:39.873Z,4.51
2023-04-07T19:27:09.204Z,4.53
2023-04-07T19:29:38.021Z,4.47
2023-04-07T19:32:06.325Z,4.46
2023-04-07T19:34:34.784Z,4.44
2023-04-07T19:37:02.812Z,4.39
2023-04-07T19:39:31.611Z,4.22
2023-04-07T19:42:01.052Z,4.20
2023-04-07T19:44:29.472Z,4.14
2023-04-07T19:46:57.634Z,4.17
2023-04-07T19:49:26.672Z,4.17
2023-04-07T19:51:55.017Z,4.14
2023-04-07T19:54:23.182Z,4.16
2023-04-07T19:56:51.909Z,4.14
2023-04-07T19:59:19.993Z,4.11
2023-04-07T20:01:48.558Z,4.11
2023-04-07T20:04:17.101Z,4.13
2023-04-07T20:06:45.452Z,4.11
2023-04-07T20:09:14.088Z,4.13
2023-04-07T20:11:42.549Z,4.11
2023-04-07T20:14:10.686Z,4.11
2023-04-07T20:16:39.012Z,4.11
2023-04-07T20:19:07.716Z,4.10
2023-04-07T20:21:36.355Z,4.10
2023-04-07T20:24:05.016Z,4.01
2023-04-07T20:26:33.459Z,4.01
2023-04-07T20:29:01.740Z,4.00
2023-04-07T20:31:30.573Z,3.92
2023-04-07T20:33:59.567Z,3.90
2023-04-07T20:36:28.047Z,3.86
2023-04-07T20:38:56.831Z,3.82
2023-04-07T20:41:25.411Z,3.80
2023-04-07T20:43:55.015Z,3.81
2023-04-07T20:46:23.540Z,3.69
2023-04-07T20:48:52.985Z,3.72
2023-04-07T20:51:22.194Z,3.76
2023-04-07T20:53:51.023Z,3.78
2023-04-07T20:56:19.454Z,3.81
2023-04-07T20:58:48.420Z,3.80
2023-04-07T21:01:17.054Z,3.79
2023-04-07T21:03:46.075Z,3.80
2023-04-07T21:06:14.220Z,3.83
2023-04-07T21:08:42.856Z,3.79
2023-04-07T21:11:11.344Z,3.82
2023-04-07T21:13:39.564Z,3.71
2023-04-07T21:16:08.226Z,3.73
2023-04-07T21:18:37.179Z,3.68
2023-04-07T21:21:05.673Z,3.70
2023-04-07T21:23:33.996Z,3.60
2023-04-07T21:26:03.421Z,3.59
2023-04-07T21:28:31.556Z,3.56
2023-04-07T21:31:01.710Z,3.55
2023-04-07T21:33:30.297Z,3.58
2023-04-07T21:36:00.346Z,3.53
2023-04-07T21:38:29.016Z,3.51
2023-04-07T21:40:57.667Z,3.58
2023-04-07T21:43:28.766Z,3.57
2023-04-07T21:45:57.182Z,3.59
2023-04-07T21:48:25.530Z,3.54
2023-04-07T21:50:53.720Z,3.54
2023-04-07T21:53:22.785Z,3.56
2023-04-07T21:55:52.193Z,3.54
2023-04-07T21:58:20.359Z,3.57
2023-04-07T22:00:48.941Z,3.60
2023-04-07T22:03:17.607Z,3.57
2023-04-07T22:05:49.087Z,3.54
2023-04-07T22:08:17.931Z,3.53
2023-04-07T22:10:46.259Z,3.57
2023-04-07T22:13:14.512Z,3.58
2023-04-07T22:15:43.209Z,3.43
2023-04-07T22:18:13.216Z,3.30
2023-04-07T22:20:42.070Z,3.35
2023-04-07T22:23:10.972Z,3.33
2023-04-07T22:25:39.093Z,3.33
2023-04-07T22:28:07.284Z,3.30
2023-04-07T22:30:36.018Z,3.11
2023-04-07T22:33:05.278Z,2.95
2023-04-07T22:35:33.604Z,2.91
2023-04-07T22:38:01.934Z,2.75
2023-04-07T22:40:31.049Z,2.71
2023-04-07T22:42:59.166Z,2.70
2023-04-07T22:45:27.645Z,2.79
2023-04-07T22:47:56.293Z,2.76
2023-04-07T22:50:25.811Z,2.68
2023-04-07T22:52:54.227Z,2.79
2023-04-07T22:55:22.340Z,2.83
2023-04-07T22:57:50.564Z,2.88
2023-04-07T23:00:22.055Z,2.93
2023-04-07T23:02:50.435Z,2.95
2023-04-07T23:05:19.077Z,2.91
2023-04-07T23:07:47.580Z,2.88
2023-04-07T23:10:18.429Z,2.92
2023-04-07T23:12:47.117Z,2.89
2023-04-07T23:15:15.566Z,2.92
2023-04-07T23:17:44.130Z,2.86
2023-04-07T23:20:14.027Z,2.87
2023-04-07T23:22:42.719Z,2.85
2023-04-07T23:25:11.048Z,2.87
2023-04-07T23:27:39.567Z,2.88
2023-04-07T23:30:10.603Z,2.82
2023-04-07T23:32:39.277Z,2.80
2023-04-07T23:35:08.293Z,2.86
2023-04-07T23:37:36.875Z,2.85
2023-04-07T23:40:06.703Z,2.86
2023-04-07T23:42:36.878Z,2.88
2023-04-07T23:45:05.742Z,2.94
2023-04-07T23:47:33.793Z,2.94
2023-04-07T23:50:02.680Z,2.94
2023-04-07T23:52:31.574Z,2.94
2023-04-07T23:54:59.672Z,2.94
2023-04-07T23:57:29.081Z,2.92
2023-04-07T23:59:57.919Z,2.94
